createdAt,value
2018-05-26T00:01:27.782Z,100135.21
2018-05-26T00:04:00.381Z,100141.19
2018-05-26T00:06:31.799Z,100139.86
2018-05-26T00:09:03.317Z,100140.35
2018-05-26T00:11:36.792Z,100138.13
2018-05-26T00:14:08.386Z,100145.86
2018-05-26T00:16:41.199Z,100138.27
2018-05-26T00:19:13.773Z,100142.28
2018-05-26T00:21:44.361Z,100140.54
2018-05-26T00:24:17.667Z,100143.08
2018-05-26T00:26:49.105Z,100140.98
2018-05-26T00:29:20.467Z,100143.40
2018-05-26T00:31:53.205Z,100143.33
2018-05-26T00:34:23.696Z,100138.16
2018-05-26T00:36:54.554Z,100147.50
2018-05-26T00:39:25.596Z,100157.11
2018-05-26T00:41:56.091Z,100147.84
2018-05-26T00:44:28.768Z,100141.51
2018-05-26T00:47:00.242Z,100141.01
2018-05-26T00:49:32.162Z,100133.94
2018-05-26T00:52:04.021Z,100139.34
2018-05-26T00:54:37.046Z,100137.62
2018-05-26T00:57:09.387Z,100137.41
2018-05-26T00:59:41.089Z,100125.72
2018-05-26T01:02:11.527Z,100120.62
2018-05-26T01:04:42.108Z,100128.58
2018-05-26T01:07:12.999Z,100130.23
2018-05-26T01:09:44.419Z,100132.08
2018-05-26T01:12:15.269Z,100127.14
2018-05-26T01:14:47.584Z,100129.78
2018-05-26T01:17:19.986Z,100132.83
2018-05-26T01:19:54.743Z,100131.70
2018-05-26T01:22:25.291Z,100131.63
2018-05-26T01:24:57.692Z,100125.23
2018-05-26T01:27:31.292Z,100120.73
2018-05-26T01:30:03.697Z,100117.75
2018-05-26T01:32:34.280Z,100121.13
2018-05-26T01:35:04.819Z,100122.31
2018-05-26T01:37:35.272Z,100123.88
2018-05-26T01:40:06.533Z,100123.96
2018-05-26T01:42:38.802Z,100128.48
2018-05-26T01:45:13.268Z,100144.20
2018-05-26T01:47:45.598Z,100135.14
2018-05-26T01:50:16.050Z,100136.28
2018-05-26T01:52:46.857Z,100133.94
2018-05-26T01:55:19.167Z,100129.66
2018-05-26T01:57:49.666Z,100130.25
2018-05-26T02:00:20.187Z,100126.53
2018-05-26T02:02:50.597Z,100127.61
2018-05-26T02:05:21.380Z,100126.88
2018-05-26T02:07:51.944Z,100124.94
2018-05-26T02:10:22.393Z,100127.41
2018-05-26T02:12:52.814Z,100131.40
2018-05-26T02:15:23.225Z,100134.25
2018-05-26T02:17:55.807Z,100126.84
2018-05-26T02:20:27.269Z,100133.42
2018-05-26T02:22:59.574Z,100134.26
2018-05-26T02:25:30.361Z,100133.80
2018-05-26T02:28:00.819Z,100135.86
2018-05-26T02:30:31.290Z,100134.30
2018-05-26T02:33:02.325Z,100133.73
2018-05-26T02:35:32.786Z,100142.32
2018-05-26T02:38:05.171Z,100133.40
2018-05-26T02:40:35.634Z,100139.36
2018-05-26T02:43:06.085Z,100133.40
2018-05-26T02:45:37.600Z,100142.60
2018-05-26T02:48:08.122Z,100149.89
2018-05-26T02:50:38.547Z,100146.77
2018-05-26T02:53:09.969Z,100147.25
2018-05-26T02:55:40.450Z,100139.63
2018-05-26T02:58:11.234Z,100142.34
2018-05-26T03:00:42.466Z,100139.56
2018-05-26T03:03:12.936Z,100146.09
2018-05-26T03:05:49.626Z,100146.00
2018-05-26T03:08:25.138Z,100141.86
2018-05-26T03:11:01.001Z,100146.46
2018-05-26T03:13:36.556Z,100147.52
2018-05-26T03:16:07.390Z,100143.97
2018-05-26T03:18:38.033Z,100146.94
2018-05-26T03:21:08.494Z,100151.84
2018-05-26T03:23:39.334Z,100141.45
2018-05-26T03:26:09.810Z,100148.45
2018-05-26T03:28:40.355Z,100144.99
2018-05-26T03:31:10.849Z,100142.33
2018-05-26T03:33:42.183Z,100148.05
2018-05-26T03:36:12.685Z,100151.01
2018-05-26T03:38:43.562Z,100150.23
2018-05-26T03:41:14.330Z,100154.72
2018-05-26T03:43:45.054Z,100148.70
2018-05-26T03:46:15.773Z,100149.18
2018-05-26T03:48:46.199Z,100155.55
2018-05-26T03:51:16.645Z,100159.13
2018-05-26T03:53:46.863Z,100156.92
2018-05-26T03:56:27.858Z,100159.09
2018-05-26T03:59:09.283Z,100157.97
2018-05-26T04:01:40.207Z,100157.88
2018-05-26T04:04:10.674Z,100159.34
2018-05-26T04:06:42.348Z,100159.59
2018-05-26T04:09:12.817Z,100162.91
2018-05-26T04:11:43.367Z,100167.14
2018-05-26T04:14:13.899Z,100174.73
2018-05-26T04:16:44.286Z,100173.58
2018-05-26T04:19:16.742Z,100177.31
2018-05-26T04:21:47.488Z,100176.48
2018-05-26T04:24:17.940Z,100175.17
2018-05-26T04:26:48.424Z,100178.64
2018-05-26T04:29:19.721Z,100181.28
2018-05-26T04:31:53.326Z,100177.34
2018-05-26T04:34:23.903Z,100177.53
2018-05-26T04:36:54.478Z,100178.08
2018-05-26T04:39:25.478Z,100184.27
2018-05-26T04:41:56.006Z,100181.01
2018-05-26T04:44:26.583Z,100186.52
2018-05-26T04:46:57.054Z,100190.19
2018-05-26T04:49:29.336Z,100200.52
2018-05-26T04:52:00.072Z,100202.30
2018-05-26T04:54:30.617Z,100199.33
2018-05-26T04:57:01.703Z,100203.46
2018-05-26T04:59:32.189Z,100206.92
2018-05-26T05:02:02.626Z,100208.03
2018-05-26T05:04:33.478Z,100210.75
2018-05-26T05:07:03.913Z,100207.47
2018-05-26T05:09:34.510Z,100213.66
2018-05-26T05:12:05.257Z,100223.82
2018-05-26T05:14:36.325Z,100224.52
2018-05-26T05:17:06.827Z,100222.58
2018-05-26T05:19:37.225Z,100221.91
2018-05-26T05:22:07.634Z,100221.62
2018-05-26T05:24:38.522Z,100222.45
2018-05-26T05:27:09.005Z,100222.11
2018-05-26T05:29:39.534Z,100229.38
2018-05-26T05:32:10.310Z,100231.13
2018-05-26T05:34:40.783Z,100236.05
2018-05-26T05:37:11.289Z,100235.37
2018-05-26T05:39:41.778Z,100229.02
2018-05-26T05:42:12.302Z,100239.54
2018-05-26T05:44:43.092Z,100243.22
2018-05-26T05:47:13.642Z,100242.08
2018-05-26T05:49:44.748Z,100239.19
2018-05-26T05:52:15.238Z,100241.23
2018-05-26T05:54:45.719Z,100236.59
2018-05-26T05:57:16.642Z,100247.45
2018-05-26T05:59:47.433Z,100257.36
2018-05-26T06:02:17.875Z,100255.59
2018-05-26T06:04:48.396Z,100256.05
2018-05-26T06:07:18.848Z,100262.97
2018-05-26T06:09:50.329Z,100266.24
2018-05-26T06:12:20.807Z,100266.03
2018-05-26T06:14:51.757Z,100262.33
2018-05-26T06:17:22.865Z,100265.33
2018-05-26T06:19:53.375Z,100270.55
2018-05-26T06:22:23.799Z,100280.67
2018-05-26T06:24:54.322Z,100270.59
2018-05-26T06:27:32.014Z,100275.20
2018-05-26T06:30:03.692Z,100279.39
2018-05-26T06:32:34.164Z,100270.95
2018-05-26T06:35:04.650Z,100263.65
2018-05-26T06:37:35.248Z,100269.84
2018-05-26T06:40:05.834Z,100269.02
2018-05-26T06:42:36.705Z,100263.45
2018-05-26T06:45:07.209Z,100264.36
2018-05-26T06:47:37.722Z,100260.16
2018-05-26T06:50:09.091Z,100256.39
2018-05-26T06:52:41.545Z,100261.21
2018-05-26T06:55:12.465Z,100256.38
2018-05-26T06:57:42.988Z,100261.35
2018-05-26T07:00:15.289Z,100255.23
2018-05-26T07:02:45.918Z,100253.86
2018-05-26T07:05:17.109Z,100250.31
2018-05-26T07:07:48.574Z,100255.40
2018-05-26T07:10:18.962Z,100254.44
2018-05-26T07:12:50.009Z,100251.45
2018-05-26T07:15:20.476Z,100247.95
2018-05-26T07:17:51.044Z,100250.50
2018-05-26T07:20:26.469Z,100259.45
2018-05-26T07:22:57.262Z,100263.30
2018-05-26T07:25:27.896Z,100264.40
2018-05-26T07:27:58.934Z,100260.25
2018-05-26T07:30:29.539Z,100260.31
2018-05-26T07:33:04.597Z,100254.59
2018-05-26T07:35:35.239Z,100258.00
2018-05-26T07:38:05.667Z,100267.44
2018-05-26T07:40:36.433Z,100252.33
2018-05-26T07:43:06.957Z,100267.69
2018-05-26T07:45:37.436Z,100260.56
2018-05-26T07:48:08.236Z,100262.61
2018-05-26T07:50:38.856Z,100266.78
2018-05-26T07:53:09.628Z,100269.79
2018-05-26T07:55:40.397Z,100267.38
2018-05-26T07:58:10.881Z,100269.34
2018-05-26T08:00:41.701Z,100275.09
2018-05-26T08:03:12.186Z,100278.02
2018-05-26T08:05:42.686Z,100275.56
2018-05-26T08:08:13.421Z,100274.60
2018-05-26T08:10:43.869Z,100278.95
2018-05-26T08:13:14.509Z,100276.38
2018-05-26T08:15:45.384Z,100278.14
2018-05-26T08:18:15.931Z,100279.80
2018-05-26T08:20:46.457Z,100283.48
2018-05-26T08:23:16.961Z,100282.18
2018-05-26T08:25:47.420Z,100283.40
2018-05-26T08:28:18.248Z,100288.77
2018-05-26T08:30:48.785Z,100275.53
2018-05-26T08:33:20.116Z,100281.77
2018-05-26T08:35:51.079Z,100283.81
2018-05-26T08:38:21.544Z,100283.81
2018-05-26T08:40:52.026Z,100274.73
2018-05-26T08:43:23.181Z,100282.62
2018-05-26T08:45:53.584Z,100279.94
2018-05-26T08:48:24.318Z,100280.55
2018-05-26T08:50:54.885Z,100278.97
2018-05-26T08:53:25.355Z,100292.77
2018-05-26T08:55:55.826Z,100281.37
2018-05-26T08:58:26.364Z,100284.68
2018-05-26T09:00:57.130Z,100290.41
2018-05-26T09:03:27.659Z,100289.98
2018-05-26T09:05:58.222Z,100292.36
2018-05-26T09:08:28.694Z,100290.27
2018-05-26T09:10:59.894Z,100284.77
2018-05-26T09:13:30.978Z,100283.19
2018-05-26T09:16:01.626Z,100282.66
2018-05-26T09:18:32.242Z,100281.55
2018-05-26T09:21:03.057Z,100276.43
2018-05-26T09:23:33.610Z,100281.81
2018-05-26T09:26:04.095Z,100278.97
2018-05-26T09:28:34.621Z,100271.00
2018-05-26T09:31:05.101Z,100278.33
2018-05-26T09:33:35.940Z,100273.30
2018-05-26T09:36:06.414Z,100277.72
2018-05-26T09:38:36.971Z,100275.55
2018-05-26T09:41:07.498Z,100277.38
2018-05-26T09:43:38.000Z,100276.88
2018-05-26T09:46:08.810Z,100275.55
2018-05-26T09:48:39.315Z,100271.96
2018-05-26T09:51:09.770Z,100276.00
2018-05-26T09:53:40.290Z,100270.95
2018-05-26T09:56:10.808Z,100271.03
2018-05-26T09:58:41.587Z,100267.95
2018-05-26T10:01:12.109Z,100270.55
2018-05-26T10:03:44.891Z,100275.75
2018-05-26T10:06:17.247Z,100265.42
2018-05-26T10:08:47.707Z,100275.02
2018-05-26T10:11:18.628Z,100280.20
2018-05-26T10:13:49.083Z,100275.33
2018-05-26T10:16:19.597Z,100281.00
2018-05-26T10:18:51.554Z,100275.77
2018-05-26T10:21:21.992Z,100279.41
2018-05-26T10:23:52.431Z,100280.16
2018-05-26T10:26:23.374Z,100271.47
2018-05-26T10:28:53.993Z,100275.64
2018-05-26T10:31:24.481Z,100267.88
2018-05-26T10:33:55.552Z,100264.17
2018-05-26T10:36:26.091Z,100266.23
2018-05-26T10:38:56.913Z,100260.23
2018-05-26T10:41:27.471Z,100266.74
2018-05-26T10:43:58.025Z,100259.88
2018-05-26T10:46:29.259Z,100263.50
2018-05-26T10:48:59.550Z,100254.75
2018-05-26T10:51:30.362Z,100259.30
2018-05-26T10:54:00.665Z,100251.66
2018-05-26T10:56:30.907Z,100256.98
2018-05-26T10:59:01.347Z,100258.73
2018-05-26T11:01:33.458Z,100248.42
2018-05-26T11:04:03.683Z,100258.47
2018-05-26T11:06:44.471Z,100259.78
2018-05-26T11:09:14.750Z,100257.34
2018-05-26T11:11:45.783Z,100259.75
2018-05-26T11:14:17.901Z,100252.52
2018-05-26T11:16:50.842Z,100255.41
2018-05-26T11:19:22.927Z,100256.73
2018-05-26T11:21:55.939Z,100258.95
2018-05-26T11:24:27.730Z,100248.08
2018-05-26T11:26:59.966Z,100249.78
2018-05-26T11:29:32.034Z,100249.00
2018-05-26T11:32:04.555Z,100240.14
2018-05-26T11:34:35.699Z,100252.12
2018-05-26T11:37:05.942Z,100243.53
2018-05-26T11:39:38.190Z,100239.84
2018-05-26T11:42:09.336Z,100233.36
2018-05-26T11:44:41.556Z,100241.16
2018-05-26T11:47:11.869Z,100239.42
2018-05-26T11:49:43.934Z,100240.96
2018-05-26T11:52:15.329Z,100237.56
2018-05-26T11:54:47.472Z,100246.09
2018-05-26T11:57:18.750Z,100248.11
2018-05-26T11:59:49.955Z,100236.77
2018-05-26T12:02:21.272Z,100246.58
2018-05-26T12:04:52.701Z,100248.25
2018-05-26T12:07:23.906Z,100246.94
2018-05-26T12:09:55.983Z,100240.46
2018-05-26T12:12:28.540Z,100240.78
2018-05-26T12:15:04.643Z,100245.28
2018-05-26T12:17:35.851Z,100249.52
2018-05-26T12:20:06.951Z,100245.73
2018-05-26T12:22:38.137Z,100243.83
2018-05-26T12:25:09.732Z,100239.29
2018-05-26T12:27:41.644Z,100245.04
2018-05-26T12:30:14.439Z,100247.69
2018-05-26T12:32:47.934Z,100249.30
2018-05-26T12:35:19.074Z,100246.72
2018-05-26T12:37:50.221Z,100249.64
2018-05-26T12:40:21.382Z,100253.95
2018-05-26T12:42:52.845Z,100250.54
2018-05-26T12:45:24.881Z,100247.62
2018-05-26T12:47:56.124Z,100249.88
2018-05-26T12:50:27.577Z,100245.11
2018-05-26T12:52:58.641Z,100241.19
2018-05-26T12:55:29.746Z,100240.20
2018-05-26T12:58:01.116Z,100235.22
2018-05-26T13:00:32.176Z,100237.18
2018-05-26T13:03:03.334Z,100229.12
2018-05-26T13:05:35.337Z,100231.34
2018-05-26T13:08:06.398Z,100222.87
2018-05-26T13:10:37.694Z,100224.16
2018-05-26T13:13:08.796Z,100217.99
2018-05-26T13:15:39.863Z,100218.57
2018-05-26T13:18:11.374Z,100223.60
2018-05-26T13:20:42.488Z,100213.66
2018-05-26T13:23:13.559Z,100219.55
2018-05-26T13:25:44.971Z,100216.15
2018-05-26T13:28:16.066Z,100208.42
2018-05-26T13:30:47.268Z,100206.82
2018-05-26T13:33:18.319Z,100202.14
2018-05-26T13:35:50.267Z,100207.61
2018-05-26T13:38:21.826Z,100196.73
2018-05-26T13:40:52.955Z,100205.94
2018-05-26T13:43:24.656Z,100203.84
2018-05-26T13:45:56.001Z,100203.34
2018-05-26T13:48:27.384Z,100205.33
2018-05-26T13:50:59.300Z,100200.66
2018-05-26T13:53:30.814Z,100200.42
2018-05-26T13:56:02.826Z,100202.74
2018-05-26T13:58:34.238Z,100206.47
2018-05-26T14:01:06.517Z,100208.17
2018-05-26T14:03:38.274Z,100207.00
2018-05-26T14:06:09.610Z,100211.02
2018-05-26T14:08:40.975Z,100205.24
2018-05-26T14:11:12.823Z,100206.17
2018-05-26T14:13:44.265Z,100201.58
2018-05-26T14:16:15.684Z,100198.52
2018-05-26T14:18:47.034Z,100202.88
2018-05-26T14:21:18.445Z,100197.03
2018-05-26T14:23:50.269Z,100195.58
2018-05-26T14:26:21.622Z,100189.08
2018-05-26T14:28:53.333Z,100184.29
2018-05-26T14:31:24.730Z,100186.28
2018-05-26T14:33:56.086Z,100188.58
2018-05-26T14:36:28.602Z,100191.69
2018-05-26T14:38:59.957Z,100181.81
2018-05-26T14:41:31.426Z,100186.94
2018-05-26T14:44:03.588Z,100184.44
2018-05-26T14:46:35.915Z,100192.05
2018-05-26T14:49:07.642Z,100191.05
2018-05-26T14:51:39.046Z,100180.08
2018-05-26T14:54:11.411Z,100175.23
2018-05-26T14:56:43.963Z,100183.91
2018-05-26T14:59:15.270Z,100181.82
2018-05-26T15:01:46.635Z,100176.95
2018-05-26T15:04:18.499Z,100177.42
2018-05-26T15:06:50.006Z,100180.05
2018-05-26T15:09:22.211Z,100178.36
2018-05-26T15:11:53.875Z,100180.34
2018-05-26T15:14:25.279Z,100178.03
2018-05-26T15:16:57.017Z,100175.75
2018-05-26T15:19:29.945Z,100173.20
2018-05-26T15:22:02.572Z,100181.21
2018-05-26T15:24:35.539Z,100180.59
2018-05-26T15:27:08.544Z,100179.17
2018-05-26T15:29:40.025Z,100181.16
2018-05-26T15:32:11.657Z,100172.69
2018-05-26T15:34:44.019Z,100168.91
2018-05-26T15:37:15.720Z,100156.06
2018-05-26T15:39:47.272Z,100161.81
2018-05-26T15:42:18.694Z,100155.70
2018-05-26T15:44:50.422Z,100152.30
2018-05-26T15:47:21.746Z,100149.23
2018-05-26T15:49:53.189Z,100151.27
2018-05-26T15:52:24.619Z,100145.69
2018-05-26T15:54:55.988Z,100152.87
2018-05-26T15:57:28.608Z,100148.48
2018-05-26T16:00:00.050Z,100138.13
2018-05-26T16:02:33.131Z,100145.31
2018-05-26T16:05:05.594Z,100141.77
2018-05-26T16:07:36.932Z,100148.50
2018-05-26T16:10:09.770Z,100141.14
2018-05-26T16:12:41.480Z,100147.99
2018-05-26T16:15:15.084Z,100149.58
2018-05-26T16:17:46.873Z,100154.28
2018-05-26T16:20:18.289Z,100154.42
2018-05-26T16:22:49.735Z,100155.59
2018-05-26T16:25:22.441Z,100155.03
2018-05-26T16:27:54.013Z,100151.80
2018-05-26T16:30:25.572Z,100145.66
2018-05-26T16:32:57.042Z,100149.18
2018-05-26T16:35:28.443Z,100151.77
2018-05-26T16:38:01.412Z,100157.78
2018-05-26T16:40:33.629Z,100150.98
2018-05-26T16:43:05.181Z,100158.38
2018-05-26T16:45:36.565Z,100147.80
2018-05-26T16:48:08.803Z,100152.41
2018-05-26T16:53:06.953Z,100153.30
2018-05-26T16:55:39.237Z,100151.95
2018-05-26T16:58:12.110Z,100147.47
2018-05-26T17:00:43.898Z,100150.52
2018-05-26T17:03:18.672Z,100150.31
2018-05-26T17:05:50.382Z,100141.15
2018-05-26T17:08:21.774Z,100148.98
2018-05-26T17:10:55.188Z,100144.72
2018-05-26T17:13:26.979Z,100145.50
2018-05-26T17:15:58.409Z,100140.14
2018-05-26T17:18:29.874Z,100146.41
2018-05-26T17:21:01.515Z,100151.11
2018-05-26T17:23:33.727Z,100140.91
2018-05-26T17:26:05.094Z,100141.73
2018-05-26T17:28:36.842Z,100139.83
2018-05-26T17:31:08.245Z,100140.19
2018-05-26T17:33:40.551Z,100140.73
2018-05-26T17:36:12.831Z,100136.88
2018-05-26T17:38:44.147Z,100137.44
2018-05-26T17:41:16.442Z,100139.92
2018-05-26T17:43:48.701Z,100143.95
2018-05-26T17:46:20.241Z,100143.41
2018-05-26T17:48:51.527Z,100136.88
2018-05-26T17:51:23.746Z,100136.97
2018-05-26T17:53:55.442Z,100133.36
2018-05-26T17:56:27.140Z,100132.28
2018-05-26T17:58:58.547Z,100130.51
2018-05-26T18:01:31.102Z,100129.88
2018-05-26T18:04:02.652Z,100137.44
2018-05-26T18:06:40.366Z,100140.00
2018-05-26T18:09:12.657Z,100143.83
2018-05-26T18:11:44.436Z,100143.48
2018-05-26T18:14:16.031Z,100143.95
2018-05-26T18:16:47.462Z,100132.44
2018-05-26T18:19:19.243Z,100137.77
2018-05-26T18:21:51.634Z,100137.75
2018-05-26T18:24:23.991Z,100138.80
2018-05-26T18:26:55.671Z,100137.66
2018-05-26T18:29:27.171Z,100142.60
2018-05-26T18:31:58.724Z,100142.16
2018-05-26T18:34:30.153Z,100146.91
2018-05-26T18:37:01.731Z,100142.42
2018-05-26T18:39:33.471Z,100142.08
2018-05-26T18:42:04.884Z,100142.78
2018-05-26T18:44:36.499Z,100142.05
2018-05-26T18:47:07.946Z,100147.03
2018-05-26T18:49:39.370Z,100149.53
2018-05-26T18:52:10.663Z,100153.52
2018-05-26T18:54:42.116Z,100153.81
2018-05-26T18:57:13.506Z,100156.85
2018-05-26T18:59:44.874Z,100162.31
2018-05-26T19:02:16.283Z,100159.80
2018-05-26T19:04:47.916Z,100164.27
2018-05-26T19:07:19.507Z,100168.71
2018-05-26T19:09:50.838Z,100171.83
2018-05-26T19:12:22.206Z,100181.59
2018-05-26T19:14:53.646Z,100181.70
2018-05-26T19:17:26.287Z,100172.42
2018-05-26T19:19:57.879Z,100169.48
2018-05-26T19:22:30.186Z,100175.94
2018-05-26T19:25:02.029Z,100167.23
2018-05-26T19:27:32.490Z,100176.56
2018-05-26T19:30:05.524Z,100187.82
2018-05-26T19:32:36.458Z,100184.55
2018-05-26T19:35:06.986Z,100188.31
2018-05-26T19:37:37.517Z,100183.65
2018-05-26T19:40:09.164Z,100180.13
2018-05-26T19:42:40.617Z,100182.91
2018-05-26T19:45:14.397Z,100186.13
2018-05-26T19:47:45.860Z,100186.72
2018-05-26T19:50:17.202Z,100193.95
2018-05-26T19:52:49.029Z,100196.30
2018-05-26T19:55:20.110Z,100198.78
2018-05-26T19:57:50.542Z,100196.32
2018-05-26T20:00:21.063Z,100196.95
2018-05-26T20:02:51.590Z,100202.68
2018-05-26T20:05:22.314Z,100200.34
2018-05-26T20:07:52.926Z,100195.70
2018-05-26T20:10:24.118Z,100204.61
2018-05-26T20:12:55.072Z,100195.16
2018-05-26T20:15:25.654Z,100206.84
2018-05-26T20:17:58.367Z,100204.80
2018-05-26T20:20:29.067Z,100197.28
2018-05-26T20:22:59.583Z,100199.61
2018-05-26T20:25:30.379Z,100196.60
2018-05-26T20:28:02.666Z,100190.84
2018-05-26T20:30:33.183Z,100191.52
2018-05-26T20:33:04.017Z,100190.56
2018-05-26T20:35:36.605Z,100187.52
2018-05-26T20:38:09.150Z,100183.95
2018-05-26T20:40:41.395Z,100190.64
2018-05-26T20:43:11.995Z,100190.92
2018-05-26T20:45:44.706Z,100202.02
2018-05-26T20:48:16.670Z,100200.78
2018-05-26T20:50:47.314Z,100200.23
2018-05-26T20:53:20.660Z,100198.58
2018-05-26T20:55:51.149Z,100201.61
2018-05-26T20:58:23.524Z,100203.23
2018-05-26T21:00:54.111Z,100199.79
2018-05-26T21:03:24.591Z,100203.39
2018-05-26T21:05:55.514Z,100214.88
2018-05-26T21:08:26.002Z,100212.02
2018-05-26T21:10:56.590Z,100212.56
2018-05-26T21:13:27.354Z,100223.77
2018-05-26T21:15:57.922Z,100221.44
2018-05-26T21:18:28.506Z,100232.94
2018-05-26T21:20:59.006Z,100231.23
2018-05-26T21:23:29.561Z,100229.80
2018-05-26T21:26:00.387Z,100224.20
2018-05-26T21:28:30.849Z,100224.29
2018-05-26T21:31:01.384Z,100226.85
2018-05-26T21:33:33.630Z,100216.45
2018-05-26T21:36:05.246Z,100224.88
2018-05-26T21:38:38.826Z,100218.89
2018-05-26T21:41:11.160Z,100221.44
2018-05-26T21:43:41.632Z,100218.45
2018-05-26T21:46:14.313Z,100224.03
2018-05-26T21:48:44.787Z,100224.05
2018-05-26T21:51:15.324Z,100229.02
2018-05-26T21:53:47.758Z,100218.28
2018-05-26T21:56:20.052Z,100224.97
2018-05-26T21:58:50.833Z,100228.64
2018-05-26T22:01:23.191Z,100222.59
2018-05-26T22:03:54.649Z,100224.09
2018-05-26T22:06:25.203Z,100219.64
2018-05-26T22:08:57.530Z,100219.22
2018-05-26T22:11:30.253Z,100221.91
2018-05-26T22:14:00.737Z,100225.27
2018-05-26T22:16:31.250Z,100215.56
2018-05-26T22:19:02.061Z,100216.12
2018-05-26T22:21:34.428Z,100213.51
2018-05-26T22:24:05.914Z,100211.93
2018-05-26T22:26:38.226Z,100207.36
2018-05-26T22:29:08.646Z,100204.23
2018-05-26T22:31:40.410Z,100207.70
2018-05-26T22:34:10.855Z,100208.24
2018-05-26T22:36:43.338Z,100200.71
2018-05-26T22:39:13.634Z,100198.44
2018-05-26T22:41:44.143Z,100196.64
2018-05-26T22:44:15.877Z,100184.80
2018-05-26T22:46:46.626Z,100170.13
2018-05-26T22:49:17.121Z,100170.20
2018-05-26T22:51:48.734Z,100170.91
2018-05-26T22:54:19.290Z,100164.99
2018-05-26T22:56:51.689Z,100160.88
2018-05-26T22:59:22.131Z,100168.29
2018-05-26T23:01:54.443Z,100184.91
2018-05-26T23:04:25.411Z,100179.35
2018-05-26T23:06:56.182Z,100174.65
2018-05-26T23:09:28.904Z,100180.52
2018-05-26T23:11:59.387Z,100180.38
2018-05-26T23:14:31.796Z,100186.39
2018-05-26T23:17:03.545Z,100193.53
2018-05-26T23:19:34.072Z,100189.41
2018-05-26T23:22:04.926Z,100198.79
2018-05-26T23:24:36.496Z,100188.64
2018-05-26T23:27:07.065Z,100188.47
2018-05-26T23:29:37.827Z,100186.39
2018-05-26T23:32:10.126Z,100193.36
2018-05-26T23:34:40.711Z,100190.77
2018-05-26T23:37:11.616Z,100183.39
2018-05-26T23:39:42.185Z,100185.14
2018-05-26T23:42:12.765Z,100187.78
2018-05-26T23:44:43.641Z,100184.02
2018-05-26T23:47:14.122Z,100183.66
2018-05-26T23:49:44.630Z,100184.83
2018-05-26T23:52:15.191Z,100185.41
2018-05-26T23:54:47.582Z,100174.89
2018-05-26T23:57:19.212Z,100167.21
2018-05-26T23:59:49.770Z,100166.66
